createdAt,value
2018-10-07T00:00:00.065Z,4.63
2018-10-07T00:02:28.616Z,5.03
2018-10-07T00:04:57.176Z,4.67
2018-10-07T00:07:25.753Z,4.60
2018-10-07T00:09:54.571Z,4.80
2018-10-07T00:12:23.126Z,5.10
2018-10-07T00:14:51.994Z,5.20
2018-10-07T00:17:20.550Z,5.03
2018-10-07T00:19:49.119Z,5.17
2018-10-07T00:22:17.652Z,5.00
2018-10-07T00:24:46.212Z,5.03
2018-10-07T00:27:14.752Z,4.80
2018-10-07T00:29:43.328Z,4.60
2018-10-07T00:32:13.728Z,4.97
2018-10-07T00:34:43.060Z,4.90
2018-10-07T00:37:11.612Z,5.20
2018-10-07T00:39:40.275Z,5.00
2018-10-07T00:42:08.844Z,4.97
2018-10-07T00:44:37.408Z,4.60
2018-10-07T00:47:06.029Z,4.53
2018-10-07T00:49:34.856Z,4.60
2018-10-07T00:52:03.463Z,5.27
2018-10-07T00:54:32.061Z,4.77
2018-10-07T00:57:00.649Z,5.07
2018-10-07T00:59:29.243Z,5.10
2018-10-07T01:01:57.835Z,5.20
2018-10-07T01:04:26.369Z,4.60
2018-10-07T01:06:54.980Z,4.90
2018-10-07T01:09:23.516Z,4.90
2018-10-07T01:11:52.094Z,4.10
2018-10-07T01:14:20.632Z,5.03
2018-10-07T01:16:49.235Z,4.60
2018-10-07T01:19:17.804Z,5.03
2018-10-07T01:21:46.417Z,5.30
2018-10-07T01:24:14.974Z,4.60
2018-10-07T01:26:43.629Z,5.27
2018-10-07T01:29:12.146Z,4.80
2018-10-07T01:31:40.685Z,5.10
2018-10-07T01:34:09.209Z,5.13
2018-10-07T01:36:37.744Z,5.57
2018-10-07T01:39:09.216Z,6.03
2018-10-07T01:41:37.834Z,5.73
2018-10-07T01:44:06.409Z,5.83
2018-10-07T01:46:34.947Z,4.83
2018-10-07T01:49:03.477Z,5.90
2018-10-07T01:51:32.042Z,5.73
2018-10-07T01:54:00.547Z,6.03
2018-10-07T01:56:29.072Z,5.40
2018-10-07T01:58:57.609Z,5.80
2018-10-07T02:01:26.176Z,5.83
2018-10-07T02:03:54.689Z,5.13
2018-10-07T02:06:23.253Z,6.33
2018-10-07T02:08:51.806Z,6.27
2018-10-07T02:11:20.371Z,7.17
2018-10-07T02:13:48.914Z,6.63
2018-10-07T02:16:17.468Z,6.90
2018-10-07T02:18:46.010Z,5.90
2018-10-07T02:21:14.576Z,6.17
2018-10-07T02:23:43.099Z,6.63
2018-10-07T02:26:11.680Z,6.47
2018-10-07T02:28:40.220Z,6.00
2018-10-07T02:31:08.797Z,6.07
2018-10-07T02:33:37.320Z,6.23
2018-10-07T02:36:05.966Z,7.30
2018-10-07T02:38:34.968Z,6.47
2018-10-07T02:41:03.536Z,6.27
2018-10-07T02:43:32.064Z,6.07
2018-10-07T02:46:00.631Z,6.70
2018-10-07T02:48:29.164Z,6.77
2018-10-07T02:50:57.841Z,6.97
2018-10-07T02:53:26.474Z,6.90
2018-10-07T02:55:55.059Z,6.40
2018-10-07T02:58:24.020Z,5.60
2018-10-07T03:00:52.609Z,6.70
2018-10-07T03:03:21.182Z,6.83
2018-10-07T03:05:49.724Z,6.70
2018-10-07T03:08:18.297Z,6.07
2018-10-07T03:10:46.836Z,6.23
2018-10-07T03:13:15.389Z,6.13
2018-10-07T03:15:43.884Z,6.07
2018-10-07T03:18:12.448Z,6.17
2018-10-07T03:20:40.960Z,5.83
2018-10-07T03:23:09.484Z,5.23
2018-10-07T03:25:38.000Z,5.23
2018-10-07T03:28:06.609Z,5.87
2018-10-07T03:30:36.213Z,6.23
2018-10-07T03:33:04.764Z,5.30
2018-10-07T03:35:33.575Z,5.73
2018-10-07T03:38:02.501Z,5.97
2018-10-07T03:40:31.004Z,6.03
2018-10-07T03:42:59.538Z,5.87
2018-10-07T03:45:28.086Z,5.73
2018-10-07T03:47:56.625Z,5.27
2018-10-07T03:50:25.128Z,7.53
2018-10-07T03:52:53.699Z,6.80
2018-10-07T03:55:22.236Z,6.13
2018-10-07T03:57:50.779Z,6.37
2018-10-07T04:00:19.596Z,5.80
2018-10-07T04:02:48.188Z,5.60
2018-10-07T04:05:16.808Z,5.37
2018-10-07T04:07:45.442Z,5.53
2018-10-07T04:10:13.959Z,5.50
2018-10-07T04:12:42.515Z,5.57
2018-10-07T04:15:11.057Z,6.20
2018-10-07T04:17:39.641Z,7.37
2018-10-07T04:20:08.220Z,6.80
2018-10-07T04:22:36.800Z,6.80
2018-10-07T04:25:05.433Z,6.93
2018-10-07T04:27:34.163Z,6.60
2018-10-07T04:30:02.718Z,6.87
2018-10-07T04:32:31.237Z,6.83
2018-10-07T04:34:59.793Z,7.27
2018-10-07T04:37:28.360Z,7.37
2018-10-07T04:39:56.958Z,6.37
2018-10-07T04:42:25.453Z,6.30
2018-10-07T04:44:54.023Z,6.50
2018-10-07T04:47:22.570Z,7.00
2018-10-07T04:49:51.144Z,6.37
2018-10-07T04:52:19.669Z,6.57
2018-10-07T04:54:48.236Z,6.73
2018-10-07T04:57:16.857Z,6.63
2018-10-07T04:59:45.423Z,7.23
2018-10-07T05:02:13.933Z,6.57
2018-10-07T05:04:42.576Z,7.23
2018-10-07T05:07:11.200Z,6.50
2018-10-07T05:09:39.860Z,6.30
2018-10-07T05:12:09.256Z,6.50
2018-10-07T05:14:38.508Z,5.53
2018-10-07T05:17:07.664Z,5.70
2018-10-07T05:19:36.239Z,6.37
2018-10-07T05:22:04.786Z,5.60
2018-10-07T05:24:33.364Z,5.43
2018-10-07T05:27:01.936Z,7.77
2018-10-07T05:29:30.855Z,10.43
2018-10-07T05:31:59.372Z,8.27
2018-10-07T05:34:27.911Z,6.50
2018-10-07T05:36:56.425Z,6.10
2018-10-07T05:39:24.956Z,5.83
2018-10-07T05:41:53.456Z,5.40
2018-10-07T05:44:22.003Z,5.67
2018-10-07T05:46:50.561Z,5.47
2018-10-07T05:49:19.087Z,5.77
2018-10-07T05:51:47.590Z,5.50
2018-10-07T05:54:16.115Z,4.83
2018-10-07T05:56:44.620Z,6.27
2018-10-07T05:59:13.500Z,6.20
2018-10-07T06:01:43.933Z,5.97
2018-10-07T06:04:21.539Z,5.20
2018-10-07T06:06:50.701Z,5.50
2018-10-07T06:09:34.899Z,5.60
2018-10-07T06:12:03.528Z,5.70
2018-10-07T06:14:43.426Z,6.50
2018-10-07T06:17:11.936Z,5.90
2018-10-07T06:19:40.532Z,6.60
2018-10-07T06:22:09.138Z,5.53
2018-10-07T06:24:37.710Z,6.37
2018-10-07T06:27:07.008Z,6.50
2018-10-07T06:29:35.623Z,5.07
2018-10-07T06:32:04.179Z,6.53
2018-10-07T06:34:32.731Z,6.50
2018-10-07T06:37:01.320Z,6.37
2018-10-07T06:39:29.875Z,5.83
2018-10-07T06:41:58.432Z,6.60
2018-10-07T06:44:27.012Z,6.50
2018-10-07T06:46:55.580Z,7.00
2018-10-07T06:49:24.168Z,7.00
2018-10-07T06:51:52.747Z,12.47
2018-10-07T06:54:21.335Z,9.30
2018-10-07T06:56:50.414Z,9.30
2018-10-07T06:59:19.029Z,8.27
2018-10-07T07:01:47.572Z,8.43
2018-10-07T07:04:16.176Z,7.27
2018-10-07T07:06:44.888Z,7.13
2018-10-07T07:09:13.528Z,6.63
2018-10-07T07:11:42.088Z,6.37
2018-10-07T07:14:10.613Z,6.33
2018-10-07T07:16:39.165Z,6.00
2018-10-07T07:19:07.723Z,7.20
2018-10-07T07:21:36.287Z,7.37
2018-10-07T07:24:04.847Z,6.20
2018-10-07T07:26:33.448Z,5.60
2018-10-07T07:29:01.944Z,6.63
2018-10-07T07:31:30.587Z,6.70
2018-10-07T07:33:59.032Z,6.80
2018-10-07T07:36:27.786Z,6.77
2018-10-07T07:38:56.319Z,6.17
2018-10-07T07:41:24.869Z,6.67
2018-10-07T07:43:53.396Z,7.17
2018-10-07T07:46:21.993Z,6.43
2018-10-07T07:48:50.635Z,6.53
2018-10-07T07:51:19.192Z,7.17
2018-10-07T07:53:47.687Z,7.10
2018-10-07T07:56:16.272Z,9.07
2018-10-07T07:58:44.787Z,6.17
2018-10-07T08:01:13.378Z,6.50
2018-10-07T08:03:41.904Z,7.73
2018-10-07T08:06:10.492Z,11.17
2018-10-07T08:08:39.097Z,13.17
2018-10-07T08:11:07.644Z,15.57
2018-10-07T08:13:36.149Z,15.70
2018-10-07T08:16:04.704Z,16.07
2018-10-07T08:18:33.240Z,15.40
2018-10-07T08:21:01.784Z,15.27
2018-10-07T08:23:30.393Z,15.30
2018-10-07T08:25:58.940Z,15.87
2018-10-07T08:28:27.510Z,15.63
2018-10-07T08:30:56.059Z,14.70
2018-10-07T08:33:24.587Z,15.03
2018-10-07T08:35:53.142Z,14.67
2018-10-07T08:38:21.683Z,15.03
2018-10-07T08:40:50.240Z,14.50
2018-10-07T08:43:19.172Z,15.73
2018-10-07T08:45:47.864Z,15.57
2018-10-07T08:48:18.493Z,14.83
2018-10-07T08:50:47.148Z,14.37
2018-10-07T08:53:15.637Z,13.50
2018-10-07T08:55:44.400Z,13.97
2018-10-07T08:58:12.933Z,13.23
2018-10-07T09:00:41.560Z,14.23
2018-10-07T09:03:10.304Z,12.63
2018-10-07T09:05:38.832Z,12.90
2018-10-07T09:08:07.439Z,12.50
2018-10-07T09:10:35.971Z,13.00
2018-10-07T09:13:04.552Z,12.03
2018-10-07T09:15:33.161Z,12.03
2018-10-07T09:18:01.755Z,13.50
2018-10-07T09:20:30.308Z,12.73
2018-10-07T09:22:58.889Z,13.43
2018-10-07T09:25:28.016Z,14.03
2018-10-07T09:27:58.276Z,13.17
2018-10-07T09:30:26.839Z,14.73
2018-10-07T09:32:55.527Z,13.57
2018-10-07T09:35:24.428Z,14.23
2018-10-07T09:37:53.030Z,15.07
2018-10-07T09:40:22.654Z,17.60
2018-10-07T09:42:51.366Z,14.57
2018-10-07T09:45:20.234Z,13.97
2018-10-07T09:47:48.950Z,13.83
2018-10-07T09:50:17.506Z,14.10
2018-10-07T09:52:46.088Z,13.33
2018-10-07T09:55:15.083Z,13.50
2018-10-07T09:57:43.705Z,13.50
2018-10-07T10:00:12.367Z,13.97
2018-10-07T10:02:42.824Z,16.10
2018-10-07T10:05:11.691Z,15.63
2018-10-07T10:07:41.567Z,17.23
2018-10-07T10:10:11.655Z,18.20
2018-10-07T10:12:40.578Z,16.57
2018-10-07T10:15:09.354Z,17.43
2018-10-07T10:17:38.258Z,18.07
2018-10-07T10:20:09.082Z,18.20
2018-10-07T10:24:51.605Z,19.10
2018-10-07T10:27:30.210Z,18.30
2018-10-07T10:30:05.938Z,17.90
2018-10-07T10:32:37.706Z,19.00
2018-10-07T10:35:13.419Z,19.27
2018-10-07T10:38:16.715Z,18.73
2018-10-07T10:40:51.713Z,19.53
2018-10-07T10:43:30.321Z,20.77
2018-10-07T10:46:06.167Z,20.03
2018-10-07T10:48:47.498Z,19.53
2018-10-07T10:51:25.662Z,19.97
2018-10-07T10:54:00.556Z,23.40
2018-10-07T10:56:37.672Z,21.13
2018-10-07T10:59:10.856Z,20.80
2018-10-07T11:03:57.265Z,18.77
2018-10-07T11:08:39.896Z,17.80
2018-10-07T11:11:22.011Z,19.00
2018-10-07T11:14:02.347Z,16.40
2018-10-07T11:18:50.595Z,16.50
2018-10-07T11:21:32.156Z,14.80
2018-10-07T11:24:04.906Z,14.47
2018-10-07T11:26:45.364Z,14.10
2018-10-07T11:31:35.436Z,17.27
2018-10-07T11:34:15.144Z,14.20
2018-10-07T11:37:18.853Z,14.00
2018-10-07T11:42:03.515Z,14.03
2018-10-07T11:44:56.062Z,14.17
2018-10-07T11:47:48.596Z,14.50
2018-10-07T11:50:24.260Z,15.63
2018-10-07T11:53:02.144Z,15.93
2018-10-07T11:55:30.680Z,15.30
2018-10-07T11:57:59.360Z,16.57
2018-10-07T12:00:27.997Z,20.60
2018-10-07T12:02:56.705Z,16.93
2018-10-07T12:05:25.284Z,16.87
2018-10-07T12:07:53.916Z,16.57
2018-10-07T12:10:22.623Z,15.60
2018-10-07T12:13:01.360Z,16.10
2018-10-07T12:15:29.971Z,16.73
2018-10-07T12:17:58.602Z,16.90
2018-10-07T12:20:27.153Z,18.93
2018-10-07T12:22:55.703Z,17.73
2018-10-07T12:25:24.309Z,16.93
2018-10-07T12:27:52.848Z,17.93
2018-10-07T12:30:21.440Z,16.97
2018-10-07T12:32:49.993Z,18.23
2018-10-07T12:35:18.585Z,20.77
2018-10-07T12:37:47.173Z,19.13
2018-10-07T12:40:15.745Z,19.00
2018-10-07T12:42:45.361Z,20.93
2018-10-07T12:45:14.018Z,19.60
2018-10-07T12:47:42.649Z,19.27
2018-10-07T12:50:11.447Z,19.67
2018-10-07T12:52:41.222Z,20.87
2018-10-07T12:55:10.052Z,19.20
2018-10-07T12:57:38.875Z,17.93
2018-10-07T13:00:07.624Z,18.77
2018-10-07T13:02:36.212Z,19.23
2018-10-07T13:05:05.391Z,19.63
2018-10-07T13:07:33.916Z,18.60
2018-10-07T13:10:03.505Z,21.03
2018-10-07T13:12:32.029Z,19.70
2018-10-07T13:15:00.577Z,18.33
2018-10-07T13:17:29.125Z,20.50
2018-10-07T13:19:57.664Z,19.83
2018-10-07T13:22:26.194Z,19.33
2018-10-07T13:24:54.759Z,19.90
2018-10-07T13:27:23.260Z,18.27
2018-10-07T13:29:51.845Z,19.90
2018-10-07T13:32:20.378Z,20.37
2018-10-07T13:34:48.903Z,21.47
2018-10-07T13:37:17.465Z,20.47
2018-10-07T13:39:46.092Z,21.10
2018-10-07T13:42:14.601Z,21.57
2018-10-07T13:44:43.265Z,20.17
2018-10-07T13:47:11.791Z,20.63
2018-10-07T13:49:40.667Z,20.00
2018-10-07T13:52:09.273Z,19.13
2018-10-07T13:54:37.912Z,20.10
2018-10-07T13:57:06.646Z,18.83
2018-10-07T13:59:35.244Z,18.57
2018-10-07T14:02:03.817Z,18.17
2018-10-07T14:04:32.573Z,16.83
2018-10-07T14:07:01.354Z,17.37
2018-10-07T14:09:30.077Z,17.90
2018-10-07T14:11:59.018Z,17.00
2018-10-07T14:14:27.721Z,19.43
2018-10-07T14:16:56.364Z,20.53
2018-10-07T14:19:25.025Z,19.43
2018-10-07T14:21:53.568Z,21.83
2018-10-07T14:24:22.194Z,20.50
2018-10-07T14:26:50.768Z,22.50
2018-10-07T14:29:19.313Z,22.27
2018-10-07T14:31:47.972Z,20.97
2018-10-07T14:34:16.487Z,21.90
2018-10-07T14:36:45.173Z,22.90
2018-10-07T14:39:14.324Z,20.67
2018-10-07T14:41:42.826Z,20.40
2018-10-07T14:44:11.331Z,20.43
2018-10-07T14:46:39.892Z,20.07
2018-10-07T14:49:08.506Z,19.03
2018-10-07T14:51:37.080Z,18.30
2018-10-07T14:54:05.573Z,17.67
2018-10-07T14:56:34.191Z,18.10
2018-10-07T14:59:02.778Z,17.97
2018-10-07T15:01:31.622Z,16.87
2018-10-07T15:04:00.400Z,15.93
2018-10-07T15:06:29.150Z,16.27
2018-10-07T15:08:57.692Z,17.07
2018-10-07T15:11:26.269Z,18.03
2018-10-07T15:16:58.156Z,16.30
2018-10-07T15:19:26.780Z,16.30
2018-10-07T15:24:57.945Z,16.37
2018-10-07T15:27:26.496Z,16.70
2018-10-07T15:29:55.043Z,15.57
2018-10-07T15:32:23.592Z,14.60
2018-10-07T15:34:52.129Z,15.33
2018-10-07T15:37:20.892Z,16.03
2018-10-07T15:39:49.666Z,14.00
2018-10-07T15:42:18.469Z,14.93
2018-10-07T15:44:47.011Z,15.30
2018-10-07T15:47:15.575Z,15.73
2018-10-07T15:49:44.096Z,19.27
2018-10-07T15:52:12.652Z,17.37
2018-10-07T15:54:41.173Z,17.43
2018-10-07T15:57:09.781Z,16.13
2018-10-07T15:59:38.320Z,15.10
2018-10-07T16:02:06.890Z,15.53
2018-10-07T16:04:35.412Z,15.90
2018-10-07T16:07:04.022Z,16.43
2018-10-07T16:09:32.553Z,18.90
2018-10-07T16:12:01.540Z,16.43
2018-10-07T16:14:30.080Z,15.30
2018-10-07T16:16:58.647Z,14.03
2018-10-07T16:19:27.183Z,15.33
2018-10-07T16:21:55.755Z,17.07
2018-10-07T16:24:24.341Z,15.53
2018-10-07T16:26:52.873Z,16.60
2018-10-07T16:29:21.400Z,15.97
2018-10-07T16:31:49.952Z,15.63
2018-10-07T16:34:18.472Z,15.97
2018-10-07T16:36:47.036Z,16.17
2018-10-07T16:39:15.648Z,15.77
2018-10-07T16:41:44.131Z,16.03
2018-10-07T16:44:12.739Z,17.17
2018-10-07T16:46:41.278Z,15.67
2018-10-07T16:49:09.832Z,15.70
2018-10-07T16:51:38.356Z,14.70
2018-10-07T16:54:06.931Z,14.37
2018-10-07T16:56:35.500Z,14.77
2018-10-07T16:59:04.093Z,14.57
2018-10-07T17:01:32.613Z,13.50
2018-10-07T17:04:01.229Z,12.33
2018-10-07T17:06:29.724Z,12.37
2018-10-07T17:08:58.342Z,13.60
2018-10-07T17:11:26.941Z,12.63
2018-10-07T17:13:55.499Z,12.40
2018-10-07T17:16:24.044Z,12.23
2018-10-07T17:18:52.610Z,12.40
2018-10-07T17:21:21.148Z,12.17
2018-10-07T17:23:49.715Z,11.57
2018-10-07T17:26:18.264Z,11.80
2018-10-07T17:28:46.820Z,12.20
2018-10-07T17:31:15.356Z,11.83
2018-10-07T17:33:43.901Z,12.20
2018-10-07T17:36:12.433Z,13.37
2018-10-07T17:38:40.980Z,12.50
2018-10-07T17:41:09.504Z,11.17
2018-10-07T17:43:38.060Z,12.53
2018-10-07T17:46:06.593Z,11.03
2018-10-07T17:48:35.202Z,12.03
2018-10-07T17:51:03.704Z,11.07
2018-10-07T17:53:32.248Z,19.43
2018-10-07T17:56:00.796Z,12.70
2018-10-07T17:58:29.335Z,11.57
2018-10-07T18:00:57.856Z,11.57
2018-10-07T18:03:27.276Z,11.60
2018-10-07T18:05:55.796Z,10.60
2018-10-07T18:08:28.370Z,10.43
2018-10-07T18:10:56.926Z,11.43
2018-10-07T18:13:25.492Z,11.50
2018-10-07T18:15:54.019Z,12.17
2018-10-07T18:18:22.585Z,10.33
2018-10-07T18:20:51.120Z,9.97
2018-10-07T18:23:19.666Z,11.43
2018-10-07T18:25:48.201Z,16.63
2018-10-07T18:28:16.815Z,11.73
2018-10-07T18:30:45.384Z,12.93
2018-10-07T18:33:13.989Z,11.90
2018-10-07T18:35:42.515Z,11.30
2018-10-07T18:38:11.101Z,11.43
2018-10-07T18:40:39.637Z,10.47
2018-10-07T18:43:08.254Z,8.80
2018-10-07T18:45:36.774Z,9.23
2018-10-07T18:48:06.084Z,10.30
2018-10-07T18:50:34.661Z,10.83
2018-10-07T18:53:03.314Z,10.70
2018-10-07T18:55:31.996Z,11.10
2018-10-07T18:58:00.721Z,10.43
2018-10-07T19:00:29.461Z,11.97
2018-10-07T19:02:58.281Z,11.37
2018-10-07T19:05:27.088Z,11.53
2018-10-07T19:07:55.745Z,10.67
2018-10-07T19:10:24.299Z,10.33
2018-10-07T19:12:53.290Z,9.87
2018-10-07T19:15:21.851Z,10.10
2018-10-07T19:17:50.416Z,12.30
2018-10-07T19:20:18.983Z,11.63
2018-10-07T19:22:48.429Z,16.60
2018-10-07T19:25:17.484Z,18.10
2018-10-07T19:27:46.161Z,14.60
2018-10-07T19:30:14.766Z,11.27
2018-10-07T19:32:43.749Z,10.70
2018-10-07T19:35:12.300Z,12.87
2018-10-07T19:37:40.835Z,14.80
2018-10-07T19:40:09.719Z,11.73
2018-10-07T19:42:38.264Z,10.57
2018-10-07T19:45:07.120Z,9.30
2018-10-07T19:47:35.862Z,9.20
2018-10-07T19:50:04.525Z,10.20
2018-10-07T19:52:33.050Z,9.70
2018-10-07T19:55:01.717Z,9.90
2018-10-07T19:57:30.568Z,9.30
2018-10-07T19:59:59.129Z,9.43
2018-10-07T20:02:27.964Z,9.70
2018-10-07T20:04:57.080Z,9.80
2018-10-07T20:07:25.641Z,9.80
2018-10-07T20:09:54.584Z,13.63
2018-10-07T20:12:23.104Z,11.10
2018-10-07T20:14:51.655Z,9.47
2018-10-07T20:17:20.366Z,10.07
2018-10-07T20:19:49.241Z,8.53
2018-10-07T20:22:18.728Z,9.57
2018-10-07T20:24:47.276Z,9.37
2018-10-07T20:27:15.798Z,9.67
2018-10-07T20:29:44.512Z,9.67
2018-10-07T20:32:13.390Z,8.37
2018-10-07T20:34:42.433Z,9.40
2018-10-07T20:37:11.232Z,8.93
2018-10-07T20:39:40.211Z,9.80
2018-10-07T20:42:08.972Z,8.77
2018-10-07T20:44:37.981Z,8.20
2018-10-07T20:47:06.750Z,8.77
2018-10-07T20:49:35.461Z,8.87
2018-10-07T20:52:04.126Z,8.53
2018-10-07T20:54:32.609Z,8.80
2018-10-07T20:57:01.780Z,9.43
2018-10-07T20:59:30.309Z,10.30
2018-10-07T21:01:59.073Z,10.80
2018-10-07T21:04:27.713Z,9.97
2018-10-07T21:06:56.560Z,9.63
2018-10-07T21:09:25.392Z,9.53
2018-10-07T21:11:54.114Z,9.73
2018-10-07T21:14:23.125Z,9.53
2018-10-07T21:16:51.947Z,9.60
2018-10-07T21:19:20.485Z,9.07
2018-10-07T21:21:49.252Z,8.40
2018-10-07T21:24:17.849Z,8.23
2018-10-07T21:26:46.564Z,8.30
2018-10-07T21:29:15.090Z,7.70
2018-10-07T21:31:43.875Z,7.60
2018-10-07T21:34:12.453Z,7.43
2018-10-07T21:36:41.230Z,7.50
2018-10-07T21:39:10.597Z,7.00
2018-10-07T21:41:39.294Z,7.97
2018-10-07T21:44:07.969Z,7.10
2018-10-07T21:46:37.464Z,7.10
2018-10-07T21:49:06.466Z,6.57
2018-10-07T21:51:35.062Z,6.73
2018-10-07T21:54:03.613Z,7.33
2018-10-07T21:56:32.380Z,6.97
2018-10-07T21:59:00.948Z,6.53
2018-10-07T22:01:30.100Z,6.83
2018-10-07T22:03:58.753Z,6.30
2018-10-07T22:06:27.388Z,6.23
2018-10-07T22:08:55.907Z,7.40
2018-10-07T22:11:24.426Z,6.90
2018-10-07T22:13:53.008Z,7.30
2018-10-07T22:16:21.525Z,6.33
2018-10-07T22:18:50.287Z,6.53
2018-10-07T22:21:18.943Z,6.93
2018-10-07T22:23:47.496Z,6.23
2018-10-07T22:26:16.379Z,6.40
2018-10-07T22:28:45.123Z,6.00
2018-10-07T22:31:13.927Z,6.57
2018-10-07T22:33:42.788Z,6.20
2018-10-07T22:36:11.648Z,6.37
2018-10-07T22:38:40.366Z,6.60
2018-10-07T22:41:09.080Z,7.00
2018-10-07T22:43:37.641Z,8.17
2018-10-07T22:46:06.177Z,7.00
2018-10-07T22:48:35.324Z,6.90
2018-10-07T22:51:04.080Z,6.60
2018-10-07T22:53:32.620Z,6.27
2018-10-07T22:56:01.261Z,5.93
2018-10-07T22:58:29.904Z,6.43
2018-10-07T23:00:58.453Z,6.43
2018-10-07T23:03:27.000Z,6.03
2018-10-07T23:05:55.689Z,6.27
2018-10-07T23:08:24.411Z,6.03
2018-10-07T23:10:52.940Z,6.00
2018-10-07T23:13:21.594Z,5.97
2018-10-07T23:15:50.121Z,6.27
2018-10-07T23:18:18.813Z,5.90
2018-10-07T23:20:50.307Z,6.97
2018-10-07T23:23:19.088Z,6.50
2018-10-07T23:25:47.705Z,7.10
2018-10-07T23:28:16.359Z,7.03
2018-10-07T23:30:44.885Z,6.97
2018-10-07T23:33:13.561Z,6.83
2018-10-07T23:35:42.272Z,7.57
2018-10-07T23:38:10.832Z,7.40
2018-10-07T23:40:40.215Z,7.80
2018-10-07T23:43:09.047Z,7.07
2018-10-07T23:45:37.861Z,6.97
2018-10-07T23:48:06.627Z,6.90
2018-10-07T23:50:35.420Z,7.23
2018-10-07T23:53:04.025Z,6.80
2018-10-07T23:55:32.754Z,7.40
2018-10-07T23:58:01.535Z,7.10
